Time;durP1;ratioP1;P1;durP2;ratioP2;P2;SDS_P1;SDS_P2;PMS_P1;PMS_P2;Temp;Humidity;BMP_temperature;BMP_pressure;BME280_temperature;BME280_humidity;BME280_pressure;Samples;Min_cycle;Max_cycle;Signal;HPM_P1;HPM_P2
2024/03/06 00:02:25;;;;;;;0.60;0.40;;;5.80;99.90;;;;;;5036398;28;20450;-80
2024/03/06 00:04:52;;;;;;;1.53;0.60;;;5.80;99.90;;;;;;5037166;28;20461;-81
2024/03/06 00:07:18;;;;;;;1.17;0.83;;;5.80;99.90;;;;;;5035913;28;20983;-81
2024/03/06 00:09:45;;;;;;;0.70;0.60;;;5.80;99.90;;;;;;5035834;28;20443;-81
2024/03/06 00:12:12;;;;;;;0.60;0.60;;;5.80;99.90;;;;;;5036173;28;20211;-81
2024/03/06 00:14:39;;;;;;;0.67;0.67;;;5.80;99.90;;;;;;5038162;28;20443;-81
2024/03/06 00:17:06;;;;;;;0.97;0.70;;;5.80;99.90;;;;;;5042242;28;20475;-81
2024/03/06 00:19:34;;;;;;;1.07;0.60;;;5.80;99.90;;;;;;5056329;28;20521;-81
2024/03/06 00:22:02;;;;;;;0.80;0.60;;;5.80;99.90;;;;;;5055411;28;20474;-81
2024/03/06 00:24:29;;;;;;;2.13;1.20;;;5.80;99.90;;;;;;5071222;28;20468;-80
2024/03/06 00:26:55;;;;;;;0.97;0.67;;;5.80;99.90;;;;;;5078411;28;21057;-80
2024/03/06 00:29:22;;;;;;;0.80;0.70;;;5.80;99.90;;;;;;5076942;28;20456;-80
2024/03/06 00:31:49;;;;;;;0.80;0.43;;;5.80;99.90;;;;;;5074980;28;20462;-80
2024/03/06 00:34:16;;;;;;;0.40;0.40;;;5.80;99.90;;;;;;5057097;28;20449;-80
2024/03/06 00:36:44;;;;;;;0.50;0.50;;;5.80;99.90;;;;;;5055771;28;20469;-80
2024/03/06 00:39:12;;;;;;;0.40;0.40;;;5.80;99.90;;;;;;5055673;28;20454;-80
2024/03/06 00:41:40;;;;;;;0.77;0.50;;;5.80;99.90;;;;;;5055722;28;20959;-80
2024/03/06 00:44:06;;;;;;;0.40;0.40;;;5.80;99.90;;;;;;5055786;28;20453;-80
2024/03/06 00:46:33;;;;;;;0.87;0.53;;;5.80;99.90;;;;;;5055828;28;20445;-80
2024/03/06 00:49:00;;;;;;;0.83;0.73;;;5.80;99.90;;;;;;5055358;28;20496;-80
2024/03/06 00:51:27;;;;;;;0.40;0.40;;;5.70;99.90;;;;;;5055511;28;20441;-80
2024/03/06 00:53:55;;;;;;;1.57;0.43;;;5.70;99.90;;;;;;5055590;28;20453;-80
2024/03/06 00:56:21;;;;;;;0.90;0.43;;;5.60;99.90;;;;;;5054986;28;20446;-80
2024/03/06 00:58:48;;;;;;;0.37;0.37;;;5.70;99.90;;;;;;5054971;28;20441;-80
2024/03/06 01:01:17;;;;;;;0.60;0.60;;;5.80;99.90;;;;;;5055357;28;20500;-80
2024/03/06 01:03:44;;;;;;;0.50;0.50;;;5.70;99.90;;;;;;5054895;28;20438;-80
2024/03/06 01:06:11;;;;;;;0.50;0.50;;;5.70;99.90;;;;;;5070376;28;20446;-80
2024/03/06 01:08:37;;;;;;;0.90;0.47;;;5.70;99.90;;;;;;5073700;28;20466;-80
2024/03/06 01:11:06;;;;;;;5.83;0.93;;;5.70;99.90;;;;;;5073608;28;20430;-81
2024/03/06 01:13:33;;;;;;;0.50;0.43;;;5.60;99.90;;;;;;5073970;28;20438;-81
2024/03/06 01:16:00;;;;;;;1.00;0.60;;;5.60;99.90;;;;;;5075887;28;20469;-81
2024/03/06 01:18:26;;;;;;;0.60;0.60;;;5.60;99.90;;;;;;5060477;28;20978;-81
2024/03/06 01:20:53;;;;;;;1.90;0.63;;;5.50;99.90;;;;;;5057005;28;20481;-81
2024/03/06 01:23:20;;;;;;;0.40;0.40;;;5.60;99.90;;;;;;5055912;28;20481;-81
2024/03/06 01:25:46;;;;;;;2.00;0.67;;;5.60;99.90;;;;;;5055705;28;20438;-81
2024/03/06 01:28:14;;;;;;;1.43;1.00;;;5.60;99.90;;;;;;5055744;28;20462;-81
2024/03/06 01:30:41;;;;;;;0.70;0.70;;;5.60;99.90;;;;;;5055349;28;20439;-80
2024/03/06 01:33:08;;;;;;;0.77;0.77;;;5.60;99.90;;;;;;5055112;28;20450;-80
2024/03/06 01:35:34;;;;;;;1.43;0.73;;;5.50;99.90;;;;;;5055084;28;20457;-80
2024/03/06 01:38:01;;;;;;;0.70;0.70;;;5.50;99.90;;;;;;5054243;28;20473;-80
2024/03/06 01:40:28;;;;;;;0.53;0.53;;;5.50;99.90;;;;;;5054734;28;20543;-80
2024/03/06 01:42:55;;;;;;;1.27;0.57;;;5.50;99.90;;;;;;5054460;28;20819;-80
2024/03/06 01:45:23;;;;;;;0.43;0.40;;;5.50;99.90;;;;;;5054144;28;20437;-80
2024/03/06 01:47:50;;;;;;;0.40;0.40;;;5.50;99.90;;;;;;5054253;28;20474;-80
2024/03/06 01:50:17;;;;;;;0.70;0.70;;;5.50;99.90;;;;;;5054708;28;20499;-80
2024/03/06 01:52:45;;;;;;;1.80;0.70;;;5.50;99.90;;;;;;5055216;28;20453;-80
2024/03/06 01:55:13;;;;;;;1.70;0.77;;;5.40;99.90;;;;;;5054173;28;20446;-80
2024/03/06 01:57:41;;;;;;;0.57;0.57;;;5.40;99.90;;;;;;5054274;28;20469;-80
2024/03/06 02:00:13;;;;;;;0.77;0.60;;;5.50;99.90;;;;;;5054064;28;20488;-80
2024/03/06 02:02:42;;;;;;;3.60;0.93;;;5.50;99.90;;;;;;5054459;28;20889;-80
2024/03/06 02:05:09;;;;;;;0.70;0.50;;;5.50;99.90;;;;;;5053903;28;20440;-80
2024/03/06 02:07:39;;;;;;;1.70;0.57;;;5.50;99.90;;;;;;5053687;28;20477;-80
2024/03/06 02:10:07;;;;;;;1.27;0.50;;;5.50;99.90;;;;;;5054371;28;20449;-80
2024/03/06 02:12:35;;;;;;;0.53;0.53;;;5.40;99.90;;;;;;5054026;28;20859;-80
2024/03/06 02:15:02;;;;;;;0.47;0.47;;;5.50;99.90;;;;;;5053958;28;20453;-80
2024/03/06 02:17:29;;;;;;;0.87;0.70;;;5.40;99.90;;;;;;5054061;28;20457;-80
2024/03/06 02:19:59;;;;;;;0.50;0.50;;;5.40;99.90;;;;;;5054515;28;20453;-80
2024/03/06 02:22:27;;;;;;;1.40;0.97;;;5.50;99.90;;;;;;5053975;28;20859;-80
2024/03/06 02:24:53;;;;;;;0.60;0.60;;;5.50;99.90;;;;;;5053616;28;20927;-80
2024/03/06 02:27:20;;;;;;;0.70;0.70;;;5.60;99.90;;;;;;5053823;28;20810;-80
2024/03/06 02:29:47;;;;;;;1.00;0.70;;;5.60;99.90;;;;;;5053738;28;20453;-80
2024/03/06 02:32:14;;;;;;;0.80;0.63;;;5.60;99.90;;;;;;5053384;28;21065;-80
2024/03/06 02:34:41;;;;;;;0.97;0.97;;;5.60;99.90;;;;;;5053432;28;20942;-80
2024/03/06 02:37:08;;;;;;;3.43;0.90;;;5.60;99.90;;;;;;5054210;28;20458;-80
2024/03/06 02:39:36;;;;;;;1.13;0.67;;;5.60;99.90;;;;;;5053907;28;20457;-80
2024/03/06 02:42:03;;;;;;;0.60;0.60;;;5.70;99.90;;;;;;5057912;28;20489;-81
2024/03/06 02:44:30;;;;;;;1.00;0.80;;;5.70;99.90;;;;;;5054252;28;20505;-81
2024/03/06 02:46:57;;;;;;;2.33;0.90;;;5.70;99.90;;;;;;5053534;28;20458;-81
2024/03/06 02:49:24;;;;;;;0.97;0.67;;;5.70;99.90;;;;;;5053598;28;20434;-81
2024/03/06 02:51:51;;;;;;;1.07;0.63;;;5.70;99.90;;;;;;5053417;28;20935;-81
2024/03/06 02:54:18;;;;;;;1.13;0.90;;;5.70;99.90;;;;;;5053638;28;20461;-81
2024/03/06 02:56:46;;;;;;;1.03;0.70;;;5.70;99.90;;;;;;5053068;28;21005;-81
2024/03/06 02:59:13;;;;;;;0.63;0.63;;;5.70;99.90;;;;;;5053674;28;20449;-81
2024/03/06 03:01:40;;;;;;;0.40;0.40;;;5.60;99.90;;;;;;5053535;28;20508;-81
2024/03/06 03:04:07;;;;;;;0.60;0.60;;;5.60;99.90;;;;;;5057960;28;20458;-81
2024/03/06 03:06:34;;;;;;;0.60;0.60;;;5.70;99.90;;;;;;5055466;28;20936;-81
2024/03/06 03:09:01;;;;;;;0.80;0.67;;;5.70;99.90;;;;;;5054167;28;20454;-81
2024/03/06 03:11:28;;;;;;;1.03;0.97;;;5.70;99.90;;;;;;5069270;28;20436;-80
2024/03/06 03:13:56;;;;;;;0.67;0.57;;;5.70;99.90;;;;;;5076527;28;20445;-80
2024/03/06 03:16:23;;;;;;;7.40;0.70;;;5.80;99.90;;;;;;5075434;28;20445;-80
2024/03/06 03:18:50;;;;;;;0.80;0.80;;;5.80;99.90;;;;;;5069118;28;20543;-80
2024/03/06 03:21:17;;;;;;;0.77;0.73;;;5.70;99.90;;;;;;5053980;28;21067;-80
2024/03/06 03:23:44;;;;;;;0.60;0.50;;;5.70;99.90;;;;;;5056535;28;20481;-80
2024/03/06 03:26:11;;;;;;;0.80;0.80;;;5.70;99.90;;;;;;5057098;28;20453;-80
2024/03/06 03:28:40;;;;;;;1.73;0.53;;;5.80;99.90;;;;;;5056749;28;20856;-80
2024/03/06 03:31:08;;;;;;;2.13;1.17;;;5.80;99.90;;;;;;5056670;28;20491;-80
2024/03/06 03:33:38;;;;;;;0.67;0.67;;;5.80;99.90;;;;;;5056475;28;20531;-80
2024/03/06 03:36:05;;;;;;;1.90;0.87;;;5.80;99.90;;;;;;5056211;28;21006;-80
2024/03/06 03:38:32;;;;;;;0.70;0.70;;;5.80;99.90;;;;;;5056027;28;20454;-80
2024/03/06 03:40:59;;;;;;;1.07;0.67;;;5.70;99.90;;;;;;5056222;28;20473;-80
2024/03/06 03:43:25;;;;;;;2.67;0.87;;;5.70;99.90;;;;;;5056420;28;20453;-80
2024/03/06 03:45:52;;;;;;;2.70;2.43;;;5.70;99.90;;;;;;5055897;28;20438;-80
2024/03/06 03:48:20;;;;;;;1.57;0.93;;;5.60;99.90;;;;;;5056530;28;20469;-80
2024/03/06 03:50:47;;;;;;;0.40;0.40;;;5.60;99.90;;;;;;5056504;28;20438;-80
2024/03/06 03:53:13;;;;;;;3.30;1.20;;;5.60;99.90;;;;;;5056141;28;20811;-80
2024/03/06 03:55:40;;;;;;;1.57;0.63;;;5.60;99.90;;;;;;5055746;28;20819;-80
2024/03/06 03:58:07;;;;;;;1.33;1.23;;;5.60;99.90;;;;;;5055908;28;20466;-80
2024/03/06 04:00:34;;;;;;;0.67;0.67;;;5.60;99.90;;;;;;5055607;28;20473;-80
2024/03/06 04:03:02;;;;;;;0.83;0.83;;;5.60;99.90;;;;;;5055769;28;20461;-80
2024/03/06 04:05:31;;;;;;;2.10;0.90;;;5.60;99.90;;;;;;5055923;28;20476;-80
2024/03/06 04:07:58;;;;;;;0.50;0.50;;;5.60;99.90;;;;;;5055429;28;20553;-80
2024/03/06 04:10:24;;;;;;;0.80;0.80;;;5.60;99.90;;;;;;5055691;28;20438;-80
2024/03/06 04:12:51;;;;;;;2.10;0.73;;;5.60;99.90;;;;;;5055633;28;20806;-80
2024/03/06 04:15:18;;;;;;;0.70;0.70;;;5.60;99.90;;;;;;5055717;28;20446;-80
2024/03/06 04:17:45;;;;;;;1.03;0.60;;;5.60;99.90;;;;;;5055540;28;20833;-80
2024/03/06 04:20:12;;;;;;;0.97;0.80;;;5.60;99.90;;;;;;5055537;28;20441;-80
2024/03/06 04:22:41;;;;;;;1.00;0.90;;;5.50;99.90;;;;;;5055177;28;20493;-80
2024/03/06 04:25:09;;;;;;;1.23;1.10;;;5.50;99.90;;;;;;5055030;28;20943;-80
2024/03/06 04:27:36;;;;;;;1.60;0.67;;;5.50;99.90;;;;;;5055585;28;20549;-80
2024/03/06 04:30:04;;;;;;;6.17;1.10;;;5.60;99.90;;;;;;5055071;28;20446;-80
2024/03/06 04:32:30;;;;;;;1.20;0.90;;;5.60;99.90;;;;;;5055008;28;20574;-80
2024/03/06 04:34:57;;;;;;;0.97;0.97;;;5.60;99.90;;;;;;5054891;28;20962;-80
2024/03/06 04:37:26;;;;;;;1.90;1.20;;;5.70;99.90;;;;;;5055256;28;20542;-80
2024/03/06 04:39:54;;;;;;;0.80;0.80;;;5.70;99.90;;;;;;5054879;28;20496;-80
2024/03/06 04:42:20;;;;;;;0.70;0.70;;;5.70;99.90;;;;;;5054806;28;20477;-80
2024/03/06 04:44:47;;;;;;;3.27;0.50;;;5.70;99.90;;;;;;5055512;28;20814;-79
2024/03/06 04:47:14;;;;;;;2.40;1.70;;;5.70;99.90;;;;;;5055069;28;20462;-79
2024/03/06 04:49:40;;;;;;;0.87;0.83;;;5.70;99.90;;;;;;5054776;28;20947;-80
2024/03/06 04:52:09;;;;;;;3.90;1.33;;;5.70;99.90;;;;;;5054854;28;20446;-80
2024/03/06 04:54:35;;;;;;;2.50;0.93;;;5.70;99.90;;;;;;5054845;28;20867;-80
2024/03/06 04:57:04;;;;;;;1.17;1.17;;;5.60;99.90;;;;;;5054428;28;20462;-79
2024/03/06 04:59:31;;;;;;;0.87;0.87;;;5.60;99.90;;;;;;5054828;28;20447;-80
2024/03/06 05:01:57;;;;;;;2.50;1.50;;;5.60;99.90;;;;;;5058231;28;20998;-80
2024/03/06 05:04:24;;;;;;;0.77;0.77;;;5.70;99.90;;;;;;5054990;28;20446;-80
2024/03/06 05:06:51;;;;;;;1.80;0.80;;;5.70;99.90;;;;;;5054888;28;20458;-80
2024/03/06 05:09:17;;;;;;;4.77;0.80;;;5.70;99.90;;;;;;5054407;28;20985;-80
2024/03/06 05:11:44;;;;;;;1.93;1.00;;;5.70;99.90;;;;;;5054448;28;20450;-80
2024/03/06 05:14:12;;;;;;;0.73;0.70;;;5.70;99.90;;;;;;5054578;28;20453;-80
2024/03/06 05:16:39;;;;;;;1.00;1.00;;;5.70;99.90;;;;;;5054337;28;20810;-80
2024/03/06 05:19:06;;;;;;;0.83;0.60;;;5.70;99.90;;;;;;5054399;28;20460;-80
2024/03/06 05:21:35;;;;;;;1.03;0.97;;;5.70;99.90;;;;;;5054010;28;20998;-80
2024/03/06 05:24:02;;;;;;;2.10;1.10;;;5.70;99.90;;;;;;5053920;28;20476;-80
2024/03/06 05:26:29;;;;;;;2.63;0.80;;;5.70;99.90;;;;;;5054204;28;20461;-80
2024/03/06 05:28:55;;;;;;;1.03;0.93;;;5.70;99.90;;;;;;5054282;28;20441;-80
2024/03/06 05:31:24;;;;;;;0.80;0.70;;;5.70;99.90;;;;;;5053944;28;20438;-80
2024/03/06 05:33:52;;;;;;;1.00;0.90;;;5.70;99.90;;;;;;5054140;28;20454;-80
2024/03/06 05:36:18;;;;;;;2.17;0.67;;;5.70;99.90;;;;;;5054015;28;20441;-80
2024/03/06 05:38:46;;;;;;;3.90;1.00;;;5.70;99.90;;;;;;5054005;28;20462;-79
2024/03/06 05:41:12;;;;;;;1.93;0.93;;;5.70;99.90;;;;;;5053751;28;20849;-80
2024/03/06 05:43:40;;;;;;;1.50;1.37;;;5.60;99.90;;;;;;5053641;28;20441;-79
2024/03/06 05:46:07;;;;;;;1.43;0.80;;;5.60;99.90;;;;;;5053007;28;20445;-79
2024/03/06 05:48:35;;;;;;;0.77;0.67;;;5.60;99.90;;;;;;5053477;28;20979;-79
2024/03/06 05:51:02;;;;;;;0.90;0.63;;;5.60;99.90;;;;;;5069945;28;20438;-80
2024/03/06 05:53:29;;;;;;;1.03;0.80;;;5.60;99.90;;;;;;5072739;28;20821;-79
2024/03/06 05:55:56;;;;;;;0.67;0.67;;;5.60;99.90;;;;;;5071465;28;20456;-79
2024/03/06 05:58:23;;;;;;;6.37;1.20;;;5.60;99.90;;;;;;5066788;28;20473;-79
2024/03/06 06:00:50;;;;;;;1.27;0.90;;;5.60;99.90;;;;;;5053787;28;20486;-79
2024/03/06 06:03:17;;;;;;;2.60;1.13;;;5.60;99.90;;;;;;5053673;28;20464;-79
2024/03/06 06:05:45;;;;;;;2.33;0.80;;;5.50;99.90;;;;;;5053718;28;20537;-79
2024/03/06 06:08:12;;;;;;;0.83;0.83;;;5.50;99.90;;;;;;5053557;28;20473;-79
2024/03/06 06:10:38;;;;;;;4.87;1.80;;;5.50;99.90;;;;;;5053302;28;20450;-79
2024/03/06 06:13:05;;;;;;;1.30;1.20;;;5.50;99.90;;;;;;5053554;28;20469;-79
2024/03/06 06:15:32;;;;;;;0.90;0.77;;;5.50;99.90;;;;;;5053789;28;20442;-78
2024/03/06 06:17:59;;;;;;;1.37;1.27;;;5.50;99.90;;;;;;5053310;28;21002;-78
2024/03/06 06:20:25;;;;;;;0.93;0.93;;;5.50;99.90;;;;;;5053531;28;20449;-78
2024/03/06 06:22:54;;;;;;;1.57;0.93;;;5.50;99.90;;;;;;5053282;28;20489;-78
2024/03/06 06:25:21;;;;;;;1.60;0.70;;;5.60;99.90;;;;;;5053889;28;20445;-79
2024/03/06 06:27:49;;;;;;;1.17;0.80;;;5.60;99.90;;;;;;5053099;28;20469;-79
2024/03/06 06:30:16;;;;;;;1.33;0.70;;;5.60;99.90;;;;;;5053653;28;20533;-79
2024/03/06 06:32:43;;;;;;;0.90;0.70;;;5.60;99.90;;;;;;5053974;28;20489;-79
2024/03/06 06:35:13;;;;;;;1.13;0.80;;;5.70;99.90;;;;;;5053503;28;21013;-79
2024/03/06 06:37:39;;;;;;;1.00;1.00;;;5.60;99.90;;;;;;5053171;28;20982;-79
2024/03/06 06:40:11;;;;;;;1.47;1.07;;;5.60;99.90;;;;;;5053330;28;20438;-79
2024/03/06 06:42:38;;;;;;;1.17;1.03;;;5.60;99.90;;;;;;5053225;28;20465;-79
2024/03/06 06:45:07;;;;;;;2.13;1.03;;;5.60;99.90;;;;;;5053126;28;20930;-79
2024/03/06 06:47:34;;;;;;;2.27;1.67;;;5.60;99.90;;;;;;5053420;28;20870;-79
2024/03/06 06:50:00;;;;;;;5.00;1.20;;;5.70;99.90;;;;;;5054148;28;20449;-79
2024/03/06 06:52:28;;;;;;;0.90;0.90;;;5.70;99.90;;;;;;5053137;28;20434;-79
2024/03/06 06:54:55;;;;;;;1.00;0.80;;;5.70;99.90;;;;;;5053114;28;20541;-79
2024/03/06 06:57:23;;;;;;;1.63;1.10;;;5.70;99.90;;;;;;5057148;28;20882;-79
2024/03/06 06:59:53;;;;;;;1.00;1.00;;;5.70;99.90;;;;;;5057760;28;20797;-79
2024/03/06 07:02:20;;;;;;;2.33;0.77;;;5.70;99.90;;;;;;5057940;28;20982;-79
2024/03/06 07:04:48;;;;;;;1.80;0.77;;;5.70;99.90;;;;;;5057107;28;20452;-79
2024/03/06 07:07:15;;;;;;;1.17;0.90;;;5.80;99.90;;;;;;5056887;28;20841;-79
2024/03/06 07:09:42;;;;;;;1.07;0.50;;;5.80;99.90;;;;;;5060004;28;20962;-79
2024/03/06 07:12:09;;;;;;;3.33;1.80;;;5.90;99.90;;;;;;5059766;28;20448;-79
2024/03/06 07:14:37;;;;;;;1.33;0.70;;;5.90;99.90;;;;;;5060200;28;20438;-79
2024/03/06 07:17:04;;;;;;;1.50;1.40;;;5.90;99.90;;;;;;5059810;28;20469;-79
2024/03/06 07:19:30;;;;;;;0.97;0.80;;;5.90;99.90;;;;;;5059569;28;20452;-79
2024/03/06 07:21:57;;;;;;;1.00;0.97;;;5.90;99.90;;;;;;5056536;28;20472;-79
2024/03/06 07:24:24;;;;;;;1.77;0.70;;;5.90;99.90;;;;;;5056666;28;20426;-79
2024/03/06 07:26:51;;;;;;;14.87;1.27;;;5.90;99.90;;;;;;5056507;28;20465;-79
2024/03/06 07:29:17;;;;;;;1.80;1.70;;;5.90;99.90;;;;;;5056591;28;20441;-79
2024/03/06 07:31:45;;;;;;;5.53;1.07;;;5.90;99.90;;;;;;5056347;28;20437;-79
2024/03/06 07:34:12;;;;;;;1.20;1.10;;;6.00;99.90;;;;;;5056411;28;20441;-79
2024/03/06 07:36:39;;;;;;;0.60;0.60;;;5.90;99.90;;;;;;5055990;28;20442;-79
2024/03/06 07:39:06;;;;;;;1.33;0.67;;;5.90;99.90;;;;;;5057200;28;20437;-79
2024/03/06 07:41:33;;;;;;;1.50;1.40;;;5.90;99.90;;;;;;5056103;28;20520;-79
2024/03/06 07:44:00;;;;;;;0.83;0.77;;;5.90;99.90;;;;;;5056203;28;20507;-79
2024/03/06 07:46:27;;;;;;;0.93;0.80;;;5.90;99.90;;;;;;5055779;28;20445;-79
2024/03/06 07:48:55;;;;;;;2.60;0.90;;;5.90;99.90;;;;;;5055835;28;20501;-79
2024/03/06 07:51:22;;;;;;;0.60;0.60;;;6.00;99.90;;;;;;5056701;28;20476;-79
2024/03/06 07:53:50;;;;;;;4.63;1.00;;;6.00;99.90;;;;;;5056191;28;20438;-79
2024/03/06 07:56:17;;;;;;;1.60;0.70;;;6.00;99.90;;;;;;5055965;28;20446;-79
2024/03/06 07:58:43;;;;;;;2.20;0.83;;;6.10;99.90;;;;;;5055841;28;20461;-79
2024/03/06 08:01:11;;;;;;;1.23;1.13;;;6.10;99.90;;;;;;5055949;28;20450;-79
2024/03/06 08:03:40;;;;;;;0.87;0.70;;;6.10;99.90;;;;;;5055588;28;20982;-79
2024/03/06 08:06:09;;;;;;;0.90;0.70;;;6.10;99.90;;;;;;5055945;28;20523;-79
2024/03/06 08:08:35;;;;;;;0.70;0.70;;;6.10;99.90;;;;;;5055126;28;20523;-79
2024/03/06 08:11:02;;;;;;;0.90;0.90;;;6.10;99.90;;;;;;5055739;28;20822;-79
2024/03/06 08:13:29;;;;;;;3.57;1.17;;;6.10;99.90;;;;;;5055946;28;20446;-79
2024/03/06 08:15:56;;;;;;;0.87;0.60;;;6.20;99.90;;;;;;5056770;28;20507;-79
2024/03/06 08:18:23;;;;;;;4.73;1.03;;;6.20;99.90;;;;;;5055718;28;20818;-79
2024/03/06 08:20:49;;;;;;;2.63;0.97;;;6.30;99.90;;;;;;5055563;28;20452;-79
2024/03/06 08:23:17;;;;;;;0.80;0.57;;;6.30;99.90;;;;;;5055040;28;20501;-79
2024/03/06 08:25:45;;;;;;;0.90;0.83;;;6.40;99.90;;;;;;5055812;28;20477;-79
2024/03/06 08:28:11;;;;;;;0.70;0.60;;;6.40;99.90;;;;;;5055348;28;20469;-79
2024/03/06 08:30:38;;;;;;;1.13;0.73;;;6.40;99.90;;;;;;5055547;28;20442;-79
2024/03/06 08:33:05;;;;;;;0.50;0.50;;;6.40;99.90;;;;;;5055338;28;20520;-79
2024/03/06 08:35:32;;;;;;;0.97;0.70;;;6.30;99.90;;;;;;5055238;28;20830;-79
2024/03/06 08:37:59;;;;;;;1.80;1.13;;;6.30;99.90;;;;;;5055311;28;20469;-79
2024/03/06 08:40:28;;;;;;;2.03;1.10;;;6.20;99.90;;;;;;5055536;28;20449;-79
2024/03/06 08:42:55;;;;;;;0.77;0.77;;;6.20;99.90;;;;;;5074787;28;20516;-79
2024/03/06 08:45:23;;;;;;;0.40;0.40;;;6.20;99.90;;;;;;5068216;28;20976;-78
2024/03/06 08:47:50;;;;;;;0.50;0.50;;;6.20;99.90;;;;;;5054596;28;20469;-78
2024/03/06 08:50:17;;;;;;;1.23;0.97;;;6.30;99.90;;;;;;5055067;28;20450;-78
2024/03/06 08:52:44;;;;;;;0.90;0.70;;;6.50;99.90;;;;;;5055949;28;20954;-79
2024/03/06 08:55:11;;;;;;;0.50;0.50;;;6.60;99.90;;;;;;5055181;28;20449;-79
2024/03/06 08:57:40;;;;;;;0.60;0.60;;;6.80;99.90;;;;;;5054983;28;20472;-78
2024/03/06 09:00:10;;;;;;;0.50;0.50;;;6.90;99.90;;;;;;5054658;28;20957;-78
2024/03/06 09:02:37;;;;;;;3.13;0.83;;;7.00;99.90;;;;;;5054514;28;20484;-78
2024/03/06 09:05:05;;;;;;;0.90;0.83;;;7.10;99.90;;;;;;5054599;28;20489;-78
2024/03/06 09:07:36;;;;;;;0.73;0.60;;;7.10;99.90;;;;;;5054568;28;21005;-77
2024/03/06 09:10:05;;;;;;;0.77;0.60;;;7.10;99.90;;;;;;5054648;28;20900;-78
2024/03/06 09:12:32;;;;;;;1.80;0.93;;;7.10;99.90;;;;;;5055001;28;20449;-78
2024/03/06 09:15:01;;;;;;;1.07;0.57;;;7.10;99.90;;;;;;5054560;28;20469;-78
2024/03/06 09:17:27;;;;;;;0.90;0.90;;;7.00;99.90;;;;;;5054491;28;20462;-77
2024/03/06 09:19:55;;;;;;;4.00;0.90;;;7.00;99.90;;;;;;5053543;28;20458;-77
2024/03/06 09:22:21;;;;;;;1.00;0.80;;;7.00;99.90;;;;;;5054316;28;20493;-77
2024/03/06 09:24:48;;;;;;;0.70;0.70;;;7.10;99.90;;;;;;5054673;28;20441;-78
2024/03/06 09:27:15;;;;;;;3.70;0.90;;;7.10;99.90;;;;;;5070991;28;20450;-78
2024/03/06 09:29:42;;;;;;;1.23;0.87;;;7.00;99.90;;;;;;5074152;28;20438;-78
2024/03/06 09:32:13;;;;;;;0.70;0.70;;;6.90;99.90;;;;;;5071648;28;20445;-78
2024/03/06 09:34:39;;;;;;;0.60;0.60;;;6.80;99.90;;;;;;5067393;28;20809;-78
2024/03/06 09:37:06;;;;;;;0.73;0.70;;;6.70;99.90;;;;;;5054388;28;20466;-78
2024/03/06 09:39:33;;;;;;;1.23;0.70;;;6.70;99.90;;;;;;5054425;28;20445;-77
2024/03/06 09:42:01;;;;;;;1.93;1.17;;;6.80;99.90;;;;;;5055086;28;21050;-77
2024/03/06 09:44:28;;;;;;;1.43;1.23;;;6.70;99.90;;;;;;5055933;28;20446;-77
2024/03/06 09:46:58;;;;;;;1.77;1.67;;;6.60;99.90;;;;;;5053735;28;20974;-78
2024/03/06 09:49:26;;;;;;;3.80;1.30;;;6.60;99.90;;;;;;5053893;28;20946;-77
2024/03/06 09:51:55;;;;;;;1.57;1.47;;;6.70;99.90;;;;;;5053808;28;20445;-77
2024/03/06 09:54:24;;;;;;;1.47;1.37;;;6.60;99.90;;;;;;5053788;28;20498;-77
2024/03/06 09:56:51;;;;;;;1.70;1.17;;;6.70;99.90;;;;;;5053657;28;20474;-77
2024/03/06 09:59:17;;;;;;;1.27;1.00;;;6.60;99.90;;;;;;5054290;28;20771;-77
2024/03/06 10:01:50;;;;;;;2.10;1.20;;;6.60;99.90;;;;;;5053862;28;20449;-77
2024/03/06 10:04:21;;;;;;;1.90;1.27;;;6.60;99.90;;;;;;5053954;28;20484;-77
2024/03/06 10:06:49;;;;;;;1.67;1.27;;;6.50;99.90;;;;;;5053554;28;20466;-77
2024/03/06 10:09:18;;;;;;;1.87;1.43;;;6.50;99.90;;;;;;5053878;28;20442;-77
2024/03/06 10:11:45;;;;;;;1.57;1.17;;;6.50;99.90;;;;;;5053553;28;20453;-77
2024/03/06 10:14:12;;;;;;;1.23;1.00;;;6.50;99.90;;;;;;5053510;28;20441;-77
2024/03/06 10:16:52;;;;;;;1.53;0.90;;;6.50;99.90;;;;;;5054394;28;20476;-77
2024/03/06 10:19:20;;;;;;;1.73;1.00;;;6.50;99.90;;;;;;5053571;28;20430;-77
2024/03/06 10:21:50;;;;;;;2.20;1.07;;;6.60;99.90;;;;;;5053921;28;20481;-78
2024/03/06 10:24:20;;;;;;;3.70;1.50;;;6.70;99.90;;;;;;5053465;28;20466;-78
2024/03/06 10:26:46;;;;;;;1.40;1.30;;;6.80;99.90;;;;;;5053764;28;20516;-77
2024/03/06 10:29:17;;;;;;;1.47;1.27;;;6.80;99.90;;;;;;5055611;28;20812;-78
2024/03/06 10:31:49;;;;;;;2.60;1.47;;;6.90;99.90;;;;;;5054561;28;20472;-78
2024/03/06 10:34:16;;;;;;;2.37;1.23;;;6.90;99.90;;;;;;5053623;28;20418;-78
2024/03/06 10:36:44;;;;;;;2.90;1.50;;;6.90;99.90;;;;;;5053222;28;20449;-78
2024/03/06 10:39:14;;;;;;;2.73;1.33;;;6.90;99.90;;;;;;5053350;28;20492;-78
2024/03/06 10:41:41;;;;;;;2.80;2.07;;;6.80;99.90;;;;;;5053669;28;20452;-78
2024/03/06 10:44:14;;;;;;;3.10;2.10;;;6.80;99.90;;;;;;5053283;28;20508;-78
2024/03/06 10:46:43;;;;;;;3.67;2.03;;;6.80;99.90;;;;;;5053323;28;20487;-78
2024/03/06 10:49:11;;;;;;;2.70;1.60;;;6.80;99.90;;;;;;5054028;28;20446;-78
2024/03/06 10:51:41;;;;;;;2.47;1.83;;;6.90;99.90;;;;;;5053960;28;20794;-78
2024/03/06 10:54:10;;;;;;;3.90;1.47;;;6.90;99.90;;;;;;5054494;28;20781;-79
2024/03/06 10:56:41;;;;;;;2.20;1.00;;;6.90;99.90;;;;;;5054197;28;20457;-79
2024/03/06 10:59:11;;;;;;;15.50;3.37;;;6.90;99.90;;;;;;5053173;28;20430;-79
2024/03/06 11:01:39;;;;;;;2.60;1.83;;;6.90;99.90;;;;;;5053390;28;20848;-79
2024/03/06 11:04:07;;;;;;;2.43;1.73;;;6.90;99.90;;;;;;5054710;28;20489;-79
2024/03/06 11:06:34;;;;;;;3.00;1.77;;;6.90;99.90;;;;;;5052746;28;20519;-79
2024/03/06 11:09:02;;;;;;;4.03;2.60;;;7.00;99.90;;;;;;5053542;28;20915;-78
2024/03/06 11:11:29;;;;;;;5.03;2.77;;;7.00;99.90;;;;;;5056452;28;20434;-79
2024/03/06 11:14:04;;;;;;;3.57;2.50;;;7.00;99.90;;;;;;5053074;28;20438;-79
2024/03/06 11:16:33;;;;;;;5.80;2.67;;;7.00;99.90;;;;;;5053998;28;20555;-79
2024/03/06 11:19:08;;;;;;;5.93;2.60;;;7.10;99.90;;;;;;5053142;28;20521;-79
2024/03/06 11:21:35;;;;;;;3.70;2.60;;;7.20;99.90;;;;;;5052905;28;20813;-79
2024/03/06 11:24:20;;;;;;;2.63;1.63;;;7.20;99.90;;;;;;5052706;28;20934;-79
2024/03/06 11:26:51;;;;;;;6.90;3.80;;;7.20;99.90;;;;;;5053024;28;20458;-79
2024/03/06 11:29:21;;;;;;;5.00;2.23;;;7.20;99.90;;;;;;5052932;28;20525;-79
2024/03/06 11:32:09;;;;;;;6.10;3.93;;;7.20;99.90;;;;;;5052776;28;20441;-79
2024/03/06 11:34:36;;;;;;;5.57;2.80;;;7.10;99.90;;;;;;5052867;28;20449;-79
2024/03/06 11:37:09;;;;;;;6.50;3.33;;;7.00;99.90;;;;;;5052681;28;20829;-79
2024/03/06 11:39:37;;;;;;;8.27;4.00;;;7.10;99.90;;;;;;5052873;28;20453;-79
2024/03/06 11:42:05;;;;;;;5.03;3.40;;;7.10;99.90;;;;;;5052790;28;20504;-79
2024/03/06 11:44:33;;;;;;;4.07;2.33;;;7.10;99.90;;;;;;5055282;28;20524;-79
2024/03/06 11:47:01;;;;;;;10.37;4.13;;;7.10;99.90;;;;;;5056156;28;20833;-79
2024/03/06 11:49:31;;;;;;;6.40;3.07;;;7.10;99.90;;;;;;5055988;28;20955;-79
2024/03/06 11:52:00;;;;;;;27.07;3.27;;;7.10;99.90;;;;;;5056027;28;20927;-79
2024/03/06 11:54:27;;;;;;;9.23;3.67;;;7.00;99.90;;;;;;5060158;28;20450;-79
2024/03/06 11:56:56;;;;;;;8.63;3.30;;;7.00;99.90;;;;;;5056120;28;20504;-79
2024/03/06 11:59:24;;;;;;;6.63;3.43;;;7.00;99.90;;;;;;5056177;28;20446;-79
2024/03/06 12:01:52;;;;;;;6.77;3.00;;;6.90;99.90;;;;;;5055769;28;20460;-79
2024/03/06 12:04:20;;;;;;;5.37;2.60;;;6.90;99.90;;;;;;5055982;28;20513;-79
2024/03/06 12:06:47;;;;;;;3.93;2.63;;;6.90;99.90;;;;;;5056114;28;20500;-79
2024/03/06 12:09:15;;;;;;;9.50;3.40;;;6.90;99.90;;;;;;5056006;28;20450;-79
2024/03/06 12:11:43;;;;;;;6.10;3.77;;;6.80;99.90;;;;;;5055937;28;20449;-78
2024/03/06 12:14:14;;;;;;;8.03;2.50;;;6.80;99.90;;;;;;5055431;28;20484;-78
2024/03/06 12:16:41;;;;;;;6.30;2.43;;;6.70;99.90;;;;;;5059095;28;20426;-77
2024/03/06 12:19:10;;;;;;;5.40;2.90;;;6.80;99.90;;;;;;5076893;28;20448;-79
2024/03/06 12:21:37;;;;;;;10.00;3.63;;;6.70;99.90;;;;;;5077185;28;20472;-79
2024/03/06 12:24:05;;;;;;;6.30;2.30;;;6.70;99.90;;;;;;5033460;28;20480;-78
2024/03/06 12:26:32;;;;;;;4.83;2.80;;;6.70;99.90;;;;;;5015869;28;20456;-78
2024/03/06 12:29:09;;;;;;;5.10;2.63;;;6.70;99.90;;;;;;5015920;28;20447;-78
2024/03/06 12:31:37;;;;;;;6.70;2.60;;;6.70;99.90;;;;;;5016817;28;21008;-78
2024/03/06 12:34:04;;;;;;;4.93;2.30;;;6.70;99.90;;;;;;5015570;28;20471;-79
2024/03/06 12:36:34;;;;;;;5.47;3.47;;;6.70;99.90;;;;;;5015939;28;20435;-78
2024/03/06 12:39:02;;;;;;;5.20;3.20;;;6.60;99.90;;;;;;5016405;28;20483;-79
2024/03/06 12:41:29;;;;;;;5.27;2.37;;;6.60;99.90;;;;;;5015611;28;20933;-79
2024/03/06 12:43:56;;;;;;;6.33;2.47;;;6.70;99.90;;;;;;5015705;28;20507;-79
2024/03/06 12:46:23;;;;;;;6.83;3.30;;;6.70;99.90;;;;;;5015708;28;20810;-79
2024/03/06 12:48:52;;;;;;;4.63;2.97;;;6.70;99.90;;;;;;5015929;28;20444;-78
2024/03/06 12:51:19;;;;;;;7.63;3.47;;;6.70;99.90;;;;;;5015272;28;20447;-79
2024/03/06 12:53:48;;;;;;;7.80;3.97;;;6.70;99.90;;;;;;5015440;28;20443;-79
2024/03/06 12:56:16;;;;;;;6.00;2.37;;;6.70;99.90;;;;;;5015167;28;20463;-79
2024/03/06 12:58:43;;;;;;;8.53;3.50;;;6.80;99.90;;;;;;5007153;23;20865;-78
2024/03/06 13:01:10;;;;;;;4.27;3.20;;;6.80;99.90;;;;;;4996828;28;20456;-78